createdAt,value
2022-11-15T00:01:44.023Z,101104.69
2022-11-15T00:04:29.348Z,101097.56
2022-11-15T00:07:33.169Z,101103.91
2022-11-15T00:10:19.711Z,101113.53
2022-11-15T00:13:13.077Z,101096.38
2022-11-15T00:16:00.382Z,101099.38
2022-11-15T00:18:50.433Z,101095.34
2022-11-15T00:21:36.553Z,101074.72
2022-11-15T00:24:21.652Z,101082.69
2022-11-15T00:27:08.249Z,101079.75
2022-11-15T00:29:54.241Z,101088.63
2022-11-15T00:32:39.398Z,101079.25
2022-11-15T00:35:24.714Z,101090.13
2022-11-15T00:38:10.305Z,101084.47
2022-11-15T00:40:55.596Z,101081.84
2022-11-15T00:43:43.147Z,101065.00
2022-11-15T00:46:28.561Z,101071.09
2022-11-15T00:49:13.814Z,101035.53
2022-11-15T00:51:59.175Z,101064.81
2022-11-15T00:54:44.597Z,101057.38
2022-11-15T00:57:29.894Z,101052.72
2022-11-15T01:00:15.746Z,101054.72
2022-11-15T01:03:02.313Z,101048.09
2022-11-15T01:05:47.631Z,101036.66
2022-11-15T01:08:33.675Z,101033.75
2022-11-15T01:11:18.817Z,101040.53
2022-11-15T01:14:04.148Z,101030.16
2022-11-15T01:16:49.494Z,101038.94
2022-11-15T01:19:34.886Z,101025.41
2022-11-15T01:22:20.465Z,101029.41
2022-11-15T01:25:05.885Z,101038.16
2022-11-15T01:27:51.152Z,101032.31
2022-11-15T01:30:37.633Z,101030.63
2022-11-15T01:33:22.681Z,101037.06
2022-11-15T01:36:22.707Z,101027.06
2022-11-15T01:39:09.153Z,101030.84
2022-11-15T01:41:55.171Z,101022.97
2022-11-15T01:44:55.700Z,101024.47
2022-11-15T01:47:47.929Z,101013.56
2022-11-15T01:50:34.148Z,101007.91
2022-11-15T01:53:22.363Z,101010.47
2022-11-15T01:56:11.890Z,101002.22
2022-11-15T01:58:59.548Z,101002.41
2022-11-15T02:01:45.172Z,101008.09
2022-11-15T02:04:34.981Z,101006.31
2022-11-15T02:07:22.738Z,101003.72
2022-11-15T02:10:13.175Z,100984.72
2022-11-15T02:13:00.661Z,101000.59
2022-11-15T02:16:38.760Z,100994.13
2022-11-15T02:19:34.501Z,100996.75
2022-11-15T02:23:09.783Z,100994.78
2022-11-15T02:26:59.458Z,100996.13
2022-11-15T02:29:53.679Z,101005.94
2022-11-15T02:33:03.463Z,100991.97
2022-11-15T02:36:32.163Z,100990.50
2022-11-15T02:39:24.557Z,100989.72
2022-11-15T02:42:40.542Z,101003.56
2022-11-15T02:45:34.628Z,100990.38
2022-11-15T02:48:22.244Z,100977.56
2022-11-15T02:51:07.710Z,100982.63
2022-11-15T02:53:52.974Z,100978.75
2022-11-15T02:56:38.556Z,100985.78
2022-11-15T02:59:48.372Z,100983.44
2022-11-15T03:03:09.133Z,100981.38
2022-11-15T03:06:18.597Z,100978.41
2022-11-15T03:09:18.502Z,100983.16
2022-11-15T03:12:24.862Z,100981.22
2022-11-15T03:15:32.404Z,100981.81
2022-11-15T03:18:34.498Z,100979.63
2022-11-15T03:21:22.741Z,100980.34
2022-11-15T03:24:09.683Z,100975.09
2022-11-15T03:26:57.758Z,100978.06
2022-11-15T03:29:50.094Z,100962.44
2022-11-15T03:32:47.563Z,100968.31
2022-11-15T03:35:43.538Z,100975.56
2022-11-15T03:38:32.998Z,100967.09
2022-11-15T03:41:30.686Z,100956.72
2022-11-15T03:44:35.943Z,100963.28
2022-11-15T03:47:40.532Z,100962.22
2022-11-15T03:50:26.893Z,100955.53
2022-11-15T03:53:13.048Z,100965.22
2022-11-15T03:55:58.948Z,100958.44
2022-11-15T03:58:44.040Z,100957.06
2022-11-15T04:01:29.728Z,100954.16
2022-11-15T04:04:15.017Z,100946.56
2022-11-15T04:07:00.614Z,100949.69
2022-11-15T04:10:03.953Z,100956.97
2022-11-15T04:12:49.135Z,100948.69
2022-11-15T04:15:34.850Z,100955.09
2022-11-15T04:18:20.182Z,100952.84
2022-11-15T04:21:24.665Z,100942.53
2022-11-15T04:24:15.694Z,100936.81
2022-11-15T04:27:01.219Z,100929.75
2022-11-15T04:29:46.610Z,100939.00
2022-11-15T04:32:32.111Z,100948.22
2022-11-15T04:35:17.535Z,100935.25
2022-11-15T04:38:05.594Z,100930.34
2022-11-15T04:40:50.815Z,100940.97
2022-11-15T04:43:36.276Z,100948.78
2022-11-15T04:46:23.532Z,100950.53
2022-11-15T04:49:09.087Z,100949.34
2022-11-15T04:51:54.534Z,100942.03
2022-11-15T04:54:39.577Z,100941.63
2022-11-15T04:57:24.958Z,100950.03
2022-11-15T05:00:16.125Z,100957.03
2022-11-15T05:03:19.542Z,100946.09
2022-11-15T05:06:05.067Z,100955.22
2022-11-15T05:08:50.105Z,100958.19
2022-11-15T05:11:35.389Z,100953.16
2022-11-15T05:14:20.736Z,100941.06
2022-11-15T05:17:06.105Z,100939.88
2022-11-15T05:19:52.877Z,100940.03
2022-11-15T05:22:38.465Z,100937.06
2022-11-15T05:25:24.193Z,100942.91
2022-11-15T05:28:09.680Z,100938.63
2022-11-15T05:31:06.553Z,100928.63
2022-11-15T05:33:52.908Z,100927.13
2022-11-15T05:36:43.027Z,100921.00
2022-11-15T05:39:28.034Z,100910.47
2022-11-15T05:42:16.132Z,100919.00
2022-11-15T05:45:07.129Z,100916.88
2022-11-15T05:47:54.702Z,100909.75
2022-11-15T05:50:44.421Z,100917.69
2022-11-15T05:53:31.570Z,100921.06
2022-11-15T05:56:17.365Z,100913.44
2022-11-15T05:59:03.418Z,100922.25
2022-11-15T06:01:48.915Z,100913.97
2022-11-15T06:04:34.156Z,100916.47
2022-11-15T06:07:19.672Z,100905.47
2022-11-15T06:10:05.834Z,100928.06
2022-11-15T06:13:05.419Z,100934.78
2022-11-15T06:15:50.683Z,100921.22
2022-11-15T06:18:37.438Z,100937.38
2022-11-15T06:21:23.343Z,100930.78
2022-11-15T06:24:08.833Z,100939.88
2022-11-15T06:26:54.424Z,100940.53
2022-11-15T06:29:40.054Z,100941.63
2022-11-15T06:32:25.400Z,100944.94
2022-11-15T06:35:10.748Z,100914.16
2022-11-15T06:37:56.551Z,100945.47
2022-11-15T06:40:42.150Z,100961.31
2022-11-15T06:43:28.317Z,100939.75
2022-11-15T06:46:13.444Z,100961.09
2022-11-15T06:48:58.901Z,100952.84
2022-11-15T06:51:44.371Z,100949.47
2022-11-15T06:54:29.811Z,100960.63
2022-11-15T06:57:15.363Z,100955.78
2022-11-15T07:00:00.603Z,100957.03
2022-11-15T07:02:46.307Z,100967.44
2022-11-15T07:05:31.593Z,100958.34
2022-11-15T07:08:16.828Z,100934.63
2022-11-15T07:11:06.399Z,100943.41
2022-11-15T07:13:51.378Z,100949.28
2022-11-15T07:16:38.439Z,100964.75
2022-11-15T07:19:23.713Z,100958.81
2022-11-15T07:22:09.014Z,100975.28
2022-11-15T07:24:54.848Z,100976.28
2022-11-15T07:27:40.588Z,100948.47
2022-11-15T07:30:27.407Z,100968.47
2022-11-15T07:33:13.110Z,100993.75
2022-11-15T07:36:06.939Z,100985.59
2022-11-15T07:38:52.384Z,100982.59
2022-11-15T07:41:37.869Z,100992.78
2022-11-15T07:44:23.012Z,100993.44
2022-11-15T07:47:08.358Z,100994.16
2022-11-15T07:49:53.691Z,100990.63
2022-11-15T07:52:38.980Z,100989.19
2022-11-15T07:55:26.099Z,100992.06
2022-11-15T07:58:12.855Z,100992.66
2022-11-15T08:00:58.088Z,100995.13
2022-11-15T08:03:43.418Z,100999.03
2022-11-15T08:06:28.960Z,100992.75
2022-11-15T08:09:14.561Z,100987.94
2022-11-15T08:11:59.679Z,100971.44
2022-11-15T08:14:45.192Z,100972.78
2022-11-15T08:17:33.701Z,100965.25
2022-11-15T08:20:20.409Z,100959.41
2022-11-15T08:23:06.996Z,100963.63
2022-11-15T08:25:52.351Z,100955.06
2022-11-15T08:28:38.038Z,100950.19
2022-11-15T08:31:23.231Z,100958.84
2022-11-15T08:34:09.177Z,100957.59
2022-11-15T08:36:54.569Z,100956.91
2022-11-15T08:39:40.192Z,100944.75
2022-11-15T08:42:25.343Z,100952.75
2022-11-15T08:45:10.984Z,100943.09
2022-11-15T08:47:56.805Z,100948.25
2022-11-15T08:50:41.856Z,100942.69
2022-11-15T08:53:27.287Z,100912.75
2022-11-15T08:56:15.119Z,100938.31
2022-11-15T08:59:00.352Z,100941.09
2022-11-15T09:01:45.700Z,100936.22
2022-11-15T09:04:31.364Z,100936.78
2022-11-15T09:07:17.139Z,100944.97
2022-11-15T09:10:02.492Z,100944.25
2022-11-15T09:12:49.498Z,100952.13
2022-11-15T09:15:35.073Z,100940.41
2022-11-15T09:18:23.065Z,100946.81
2022-11-15T09:21:09.226Z,100950.66
2022-11-15T09:23:55.362Z,100951.28
2022-11-15T09:26:41.793Z,100947.41
2022-11-15T09:29:27.351Z,100944.59
2022-11-15T09:32:12.783Z,100940.16
2022-11-15T09:34:59.107Z,100944.94
2022-11-15T09:37:44.861Z,100947.28
2022-11-15T09:40:33.556Z,100933.63
2022-11-15T09:44:06.169Z,100941.22
2022-11-15T09:47:04.796Z,100946.09
2022-11-15T09:50:02.620Z,100942.41
2022-11-15T09:52:35.850Z,100937.16
2022-11-15T09:55:02.807Z,100943.75
2022-11-15T09:57:57.653Z,100939.69
2022-11-15T10:00:48.576Z,100937.94
2022-11-15T10:03:40.358Z,100936.75
2022-11-15T10:06:10.768Z,100932.03
2022-11-15T10:09:06.525Z,100928.13
2022-11-15T10:11:38.940Z,100914.88
2022-11-15T10:14:26.466Z,100909.94
2022-11-15T10:17:11.349Z,100914.88
2022-11-15T10:20:11.162Z,100904.38
2022-11-15T10:22:50.348Z,100900.88
2022-11-15T10:25:19.126Z,100897.19
2022-11-15T10:27:54.552Z,100890.44
2022-11-15T10:30:21.630Z,100892.84
2022-11-15T10:32:50.491Z,100896.25
2022-11-15T10:35:24.774Z,100887.41
2022-11-15T10:37:51.721Z,100892.56
2022-11-15T10:40:25.328Z,100884.78
2022-11-15T10:43:16.953Z,100874.56
2022-11-15T10:45:45.121Z,100870.25
2022-11-15T10:48:14.756Z,100873.56
2022-11-15T10:50:46.412Z,100856.56
2022-11-15T10:53:24.987Z,100863.59
2022-11-15T10:55:56.734Z,100861.38
2022-11-15T10:58:43.692Z,100854.06
2022-11-15T11:01:30.515Z,100843.69
2022-11-15T11:04:07.102Z,100848.78
2022-11-15T11:06:59.287Z,100834.41
2022-11-15T11:09:43.223Z,100839.31
2022-11-15T11:12:13.320Z,100830.31
2022-11-15T11:14:40.776Z,100823.31
2022-11-15T11:17:36.099Z,100826.41
2022-11-15T11:20:25.537Z,100828.50
2022-11-15T11:23:07.422Z,100824.00
2022-11-15T11:25:50.947Z,100819.88
2022-11-15T11:28:54.945Z,100809.75
2022-11-15T11:31:48.516Z,100825.28
2022-11-15T11:34:27.097Z,100813.66
2022-11-15T11:37:30.129Z,100812.69
2022-11-15T11:40:33.782Z,100808.22
2022-11-15T11:43:40.678Z,100806.13
2022-11-15T11:46:31.749Z,100815.03
2022-11-15T11:49:09.101Z,100820.13
2022-11-15T11:51:44.727Z,100796.09
2022-11-15T11:54:32.564Z,100798.78
2022-11-15T11:57:00.930Z,100797.56
2022-11-15T12:00:01.619Z,100799.53
2022-11-15T12:02:40.185Z,100802.16
2022-11-15T12:06:13.665Z,100802.91
2022-11-15T12:08:59.118Z,100787.59
2022-11-15T12:11:44.154Z,100786.91
2022-11-15T12:14:28.296Z,100780.47
2022-11-15T12:16:55.159Z,100788.88
2022-11-15T12:19:22.112Z,100785.38
2022-11-15T12:22:01.750Z,100783.34
2022-11-15T12:24:56.486Z,100775.28
2022-11-15T12:27:42.500Z,100772.94
2022-11-15T12:30:15.076Z,100770.72
2022-11-15T12:33:00.114Z,100770.19
2022-11-15T12:35:39.338Z,100767.59
2022-11-15T12:38:13.557Z,100764.59
2022-11-15T12:41:18.351Z,100753.78
2022-11-15T12:43:50.023Z,100761.44
2022-11-15T12:46:22.443Z,100754.16
2022-11-15T12:48:57.017Z,100752.63
2022-11-15T12:51:43.894Z,100739.13
2022-11-15T12:54:22.593Z,100740.13
2022-11-15T12:57:04.780Z,100734.88
2022-11-15T13:00:05.128Z,100735.53
2022-11-15T13:02:46.456Z,100727.00
2022-11-15T13:05:16.259Z,100730.38
2022-11-15T13:07:42.885Z,100715.84
2022-11-15T13:10:28.172Z,100720.66
2022-11-15T13:13:02.103Z,100709.63
2022-11-15T13:15:41.315Z,100717.31
2022-11-15T13:18:24.710Z,100709.22
2022-11-15T13:20:51.457Z,100702.03
2022-11-15T13:23:18.317Z,100709.75
2022-11-15T13:26:17.432Z,100708.91
2022-11-15T13:28:52.743Z,100699.56
2022-11-15T13:31:41.441Z,100699.78
2022-11-15T13:34:52.335Z,100693.13
2022-11-15T13:37:22.831Z,100700.91
2022-11-15T13:39:50.464Z,100696.22
2022-11-15T13:42:20.540Z,100700.44
2022-11-15T13:45:20.703Z,100700.13
2022-11-15T13:47:55.328Z,100697.34
2022-11-15T13:50:29.254Z,100704.25
2022-11-15T13:53:01.194Z,100711.28
2022-11-15T13:55:29.826Z,100717.00
2022-11-15T13:58:01.559Z,100708.97
2022-11-15T14:00:43.668Z,100715.63
2022-11-15T14:03:16.705Z,100709.63
2022-11-15T14:05:43.937Z,100708.09
2022-11-15T14:08:24.814Z,100707.78
2022-11-15T14:11:20.768Z,100697.66
2022-11-15T14:14:09.115Z,100714.09
2022-11-15T14:16:37.277Z,100712.56
2022-11-15T14:19:06.157Z,100712.44
2022-11-15T14:21:33.443Z,100706.38
2022-11-15T14:24:21.589Z,100708.94
2022-11-15T14:26:48.587Z,100700.34
2022-11-15T14:29:29.887Z,100696.28
2022-11-15T14:32:16.865Z,100673.16
2022-11-15T14:34:44.043Z,100701.50
2022-11-15T14:37:22.073Z,100693.69
2022-11-15T14:39:49.659Z,100697.09
2022-11-15T14:42:17.614Z,100689.09
2022-11-15T14:44:46.165Z,100671.78
2022-11-15T14:47:13.998Z,100687.88
2022-11-15T14:49:40.886Z,100688.59
2022-11-15T14:52:32.219Z,100689.47
2022-11-15T14:55:02.218Z,100686.72
2022-11-15T14:57:29.831Z,100686.56
2022-11-15T14:59:57.731Z,100681.50
2022-11-15T15:02:27.691Z,100680.66
2022-11-15T15:04:54.765Z,100682.66
2022-11-15T15:07:22.078Z,100676.69
2022-11-15T15:09:49.481Z,100679.31
2022-11-15T15:12:21.310Z,100672.31
2022-11-15T15:14:50.273Z,100676.31
2022-11-15T15:17:18.074Z,100667.19
2022-11-15T15:19:45.021Z,100663.00
2022-11-15T15:22:26.374Z,100649.09
2022-11-15T15:24:53.173Z,100662.94
2022-11-15T15:27:19.919Z,100666.91
2022-11-15T15:29:46.644Z,100670.97
2022-11-15T15:32:14.442Z,100661.88
2022-11-15T15:34:41.883Z,100664.88
2022-11-15T15:37:27.124Z,100659.59
2022-11-15T15:39:56.810Z,100662.66
2022-11-15T15:42:24.477Z,100659.31
2022-11-15T15:44:51.847Z,100651.31
2022-11-15T15:47:23.721Z,100648.22
2022-11-15T15:49:51.621Z,100645.22
2022-11-15T15:52:18.949Z,100653.00
2022-11-15T15:54:45.741Z,100644.50
2022-11-15T15:57:14.619Z,100642.63
2022-11-15T15:59:41.614Z,100642.63
2022-11-15T16:02:13.128Z,100630.28
2022-11-15T16:04:41.094Z,100631.81
2022-11-15T16:07:22.099Z,100625.47
2022-11-15T16:10:00.893Z,100624.41
2022-11-15T16:12:36.519Z,100630.66
2022-11-15T16:15:04.241Z,100629.13
2022-11-15T16:17:39.614Z,100625.31
2022-11-15T16:20:07.109Z,100622.22
2022-11-15T16:22:33.938Z,100624.78
2022-11-15T16:25:00.719Z,100623.94
2022-11-15T16:27:27.548Z,100624.72
2022-11-15T16:29:54.230Z,100628.16
2022-11-15T16:32:21.062Z,100624.53
2022-11-15T16:34:49.399Z,100630.13
2022-11-15T16:37:24.124Z,100619.41
2022-11-15T16:39:53.930Z,100625.44
2022-11-15T16:42:22.971Z,100618.59
2022-11-15T16:44:49.640Z,100619.94
2022-11-15T16:47:21.137Z,100621.59
2022-11-15T16:49:47.928Z,100620.75
2022-11-15T16:52:20.132Z,100603.13
2022-11-15T16:54:48.122Z,100621.50
2022-11-15T16:57:16.513Z,100622.72
2022-11-15T16:59:43.432Z,100613.31
2022-11-15T17:02:13.045Z,100610.75
2022-11-15T17:04:39.865Z,100601.31
2022-11-15T17:07:06.850Z,100614.03
2022-11-15T17:09:34.552Z,100616.53
2022-11-15T17:12:01.303Z,100619.22
2022-11-15T17:14:28.136Z,100612.06
2022-11-15T17:16:57.733Z,100609.91
2022-11-15T17:19:24.788Z,100609.28
2022-11-15T17:21:51.885Z,100609.53
2022-11-15T17:24:20.995Z,100616.66
2022-11-15T17:26:51.196Z,100621.53
2022-11-15T17:29:18.533Z,100618.25
2022-11-15T17:31:45.875Z,100618.06
2022-11-15T17:34:13.307Z,100615.84
2022-11-15T17:36:40.581Z,100609.03
2022-11-15T17:39:07.672Z,100611.25
2022-11-15T17:41:34.763Z,100613.78
2022-11-15T17:44:03.462Z,100606.88
2022-11-15T17:46:31.190Z,100607.97
2022-11-15T17:48:59.875Z,100614.38
2022-11-15T17:51:26.635Z,100612.06
2022-11-15T17:53:53.569Z,100614.94
2022-11-15T17:56:23.238Z,100614.00
2022-11-15T17:58:53.449Z,100624.38
2022-11-15T18:01:36.470Z,100615.44
2022-11-15T18:04:08.211Z,100593.19
2022-11-15T18:06:36.663Z,100625.81
2022-11-15T18:09:04.873Z,100614.16
2022-11-15T18:11:39.310Z,100605.50
2022-11-15T18:14:12.576Z,100614.72
2022-11-15T18:16:40.399Z,100621.13
2022-11-15T18:19:14.016Z,100623.41
2022-11-15T18:21:58.895Z,100611.91
2022-11-15T18:24:38.633Z,100603.81
2022-11-15T18:27:07.530Z,100608.66
2022-11-15T18:29:37.615Z,100602.63
2022-11-15T18:32:11.566Z,100599.97
2022-11-15T18:34:42.119Z,100602.13
2022-11-15T18:37:09.173Z,100603.94
2022-11-15T18:39:35.926Z,100605.31
2022-11-15T18:42:02.872Z,100603.38
2022-11-15T18:44:30.494Z,100580.69
2022-11-15T18:46:57.781Z,100606.25
2022-11-15T18:49:24.446Z,100591.69
2022-11-15T18:51:51.227Z,100578.19
2022-11-15T18:54:18.159Z,100591.00
2022-11-15T18:56:45.871Z,100587.81
2022-11-15T18:59:13.511Z,100585.44
2022-11-15T19:01:43.822Z,100569.03
2022-11-15T19:04:13.799Z,100565.00
2022-11-15T19:06:43.308Z,100576.00
2022-11-15T19:09:13.872Z,100572.63
2022-11-15T19:11:41.155Z,100572.75
2022-11-15T19:14:11.162Z,100566.84
2022-11-15T19:16:50.267Z,100557.97
2022-11-15T19:19:21.153Z,100560.81
2022-11-15T19:21:48.215Z,100550.69
2022-11-15T19:24:15.504Z,100570.44
2022-11-15T19:26:42.980Z,100555.75
2022-11-15T19:29:10.606Z,100550.50
2022-11-15T19:31:38.006Z,100562.09
2022-11-15T19:34:07.615Z,100550.97
2022-11-15T19:36:40.582Z,100557.50
2022-11-15T19:39:12.712Z,100564.59
2022-11-15T19:41:44.230Z,100561.56
2022-11-15T19:44:13.074Z,100551.22
2022-11-15T19:46:40.808Z,100566.31
2022-11-15T19:49:10.391Z,100567.63
2022-11-15T19:51:37.592Z,100560.94
2022-11-15T19:54:08.652Z,100558.16
2022-11-15T19:56:35.944Z,100562.28
2022-11-15T19:59:04.618Z,100529.75
2022-11-15T20:01:36.223Z,100562.50
2022-11-15T20:04:06.356Z,100563.94
2022-11-15T20:06:37.102Z,100563.25
2022-11-15T20:09:04.322Z,100546.66
2022-11-15T20:11:31.064Z,100560.94
2022-11-15T20:13:59.636Z,100556.91
2022-11-15T20:16:26.547Z,100541.13
2022-11-15T20:18:53.830Z,100569.09
2022-11-15T20:30:09.260Z,100542.88
2022-11-15T20:32:36.056Z,100533.47
2022-11-15T20:35:02.824Z,100533.84
2022-11-15T20:54:44.404Z,100512.53
2022-11-15T21:00:08.218Z,100522.72
2022-11-15T21:02:34.897Z,100526.06
2022-11-15T21:05:01.713Z,100521.16
